Wevelgem, Belgium
Current Conditions -  °F | °C
As of 5:30 AM on Monday 26 Jan 2015 (Local Time) from LFQQ Reporting Station
Drizzle Drizzle  
Wind Chill: 39°   Ceiling: 400
Heat Index: 43°   Visibility: 3mi
Dew Point: 43°   Wind: 7mph
Humidity: 100%   Direction: 220°SW
Pressure: 30.21"   Gusts: NA
Location:  50.8°N, 3.17°E
Report Text: LFQQ 260430Z 22006KT 5000 -DZ OVC004 06/06 Q1023 TEMPO 1500DZRA
Loading
Personal Weather Stations






























Interactive Weather Map New forecast layout! Learn more

10-Day Weather Forecast

Advertisements
Track Severe Weather on mobile